Time,TemperatureF,DewpointF,PressureIn,WindDirection,WindDirectionDegrees,WindSpeedMPH,WindSpeedGustMPH,Humidity,HourlyPrecipIn,Conditions,Clouds,dailyrainin,SolarRadiationWatts/m^2,SoftwareType,DateUTC
2013-09-02 10:22:00,86.0,80.0,-100.00,SSW,203,2.0,-999.0,80,0.00,,,-99.99,430.000000,,2013-09-02 14:22:00,
2013-09-02 10:43:00,86.0,79.0,-100.00,SSW,209,4.0,-999.0,80,0.00,,,-99.99,467.000000,,2013-09-02 14:43:00,
2013-09-02 10:52:00,87.0,78.0,-100.00,SSW,198,4.0,-999.0,74,0.00,,,-99.99,642.400024,,2013-09-02 14:52:00,
2013-09-02 11:12:00,86.0,77.0,-100.00,SW,225,3.0,-999.0,74,0.00,,,-99.99,175.500000,,2013-09-02 15:12:00,
2013-09-02 11:23:00,87.0,78.0,-100.00,WNW,284,2.0,-999.0,73,0.00,,,-99.99,578.700012,,2013-09-02 15:23:00,
2013-09-02 11:45:00,89.0,77.0,-100.00,SW,217,4.0,-999.0,69,0.00,,,-99.99,678.799988,,2013-09-02 15:45:00,
2013-09-02 11:55:00,89.0,77.0,-100.00,South,172,4.0,-999.0,68,0.00,,,-99.99,848.000000,,2013-09-02 15:55:00,
2013-09-02 12:14:00,89.0,77.0,-100.00,SSW,195,4.0,-999.0,66,0.00,,,-99.99,555.799988,,2013-09-02 16:14:00,
2013-09-02 12:24:00,89.0,76.0,-100.00,SSW,208,3.0,-999.0,65,0.00,,,-99.99,761.000000,,2013-09-02 16:24:00,
2013-09-02 12:42:00,90.0,76.0,-100.00,West,277,2.0,-999.0,62,0.00,,,-99.99,952.000000,,2013-09-02 16:42:00,
2013-09-02 12:53:00,91.0,74.0,-100.00,NW,308,2.0,-999.0,58,0.00,,,-99.99,998.000000,,2013-09-02 16:53:00,
2013-09-02 13:13:00,92.0,75.0,-100.00,West,271,3.0,-999.0,59,0.00,,,-99.99,904.000000,,2013-09-02 17:13:00,
2013-09-02 13:23:00,90.0,77.0,-100.00,SE,144,4.0,-999.0,66,0.00,,,-99.99,404.299988,,2013-09-02 17:23:00,
2013-09-02 13:45:00,89.0,78.0,-100.00,ESE,106,5.0,-999.0,68,0.00,,,-99.99,262.700012,,2013-09-02 17:45:00,
2013-09-02 13:52:00,90.0,79.0,-100.00,SE,139,6.0,-999.0,70,0.00,,,-99.99,779.000000,,2013-09-02 17:52:00,
2013-09-02 14:13:00,89.0,78.0,-100.00,SSE,151,7.0,-999.0,70,0.00,,,-99.99,328.200012,,2013-09-02 18:13:00,
2013-09-02 14:22:00,89.0,78.0,-100.00,South,172,6.0,-999.0,71,0.00,,,-99.99,187.600006,,2013-09-02 18:22:00,
2013-09-02 14:42:00,86.0,78.0,-100.00,SSW,205,12.0,-999.0,75,0.00,,,-99.99,69.400002,,2013-09-02 18:42:00,
2013-09-02 14:52:00,78.0,75.0,-100.00,SW,224,14.0,-999.0,92,0.30,,,-99.99,4.200000,,2013-09-02 18:52:00,
2013-09-02 15:12:00,77.0,75.0,-100.00,SW,235,9.0,-999.0,93,0.94,,,-99.99,4.300000,,2013-09-02 19:12:00,
2013-09-02 15:22:00,76.0,74.0,-100.00,West,269,5.0,-999.0,96,0.68,,,-99.99,8.800000,,2013-09-02 19:22:00,
2013-09-02 15:42:00,76.0,75.0,-100.00,West,277,3.0,-999.0,96,0.03,,,-99.99,17.500000,,2013-09-02 19:42:00,
2013-09-02 15:52:00,76.0,75.0,-100.00,NNE,19,3.0,-999.0,96,0.00,,,-99.99,29.799999,,2013-09-02 19:52:00,
2013-09-02 16:12:00,77.0,76.0,-100.00,NW,320,2.0,-999.0,97,0.08,,,-99.99,36.700001,,2013-09-02 20:12:00,
2013-09-02 16:22:00,77.0,76.0,-100.00,NNE,19,3.0,-999.0,96,0.08,,,-99.99,43.700001,,2013-09-02 20:22:00,
2013-09-02 16:42:00,77.0,76.0,-100.00,North,10,2.0,-999.0,96,0.03,,,-99.99,62.099998,,2013-09-02 20:42:00,
2013-09-02 16:52:00,77.0,76.0,-100.00,NW,311,4.0,-999.0,96,0.03,,,-99.99,98.599998,,2013-09-02 20:52:00,
2013-09-02 17:12:00,77.0,76.0,-100.00,NW,313,4.0,-999.0,95,0.00,,,-99.99,132.500000,,2013-09-02 21:12:00,
2013-09-02 17:23:00,78.0,76.0,-100.00,NW,323,3.0,-999.0,94,0.00,,,-99.99,143.800003,,2013-09-02 21:23:00,
2013-09-02 17:44:00,79.0,76.0,-100.00,NNW,346,2.0,-999.0,93,0.00,,,-99.99,136.199997,,2013-09-02 21:44:00,
2013-09-02 17:55:00,79.0,76.0,-100.00,NNW,330,3.0,-999.0,91,0.00,,,-99.99,153.300003,,2013-09-02 21:55:00,
2013-09-02 18:13:00,79.0,76.0,-100.00,NW,314,3.0,-999.0,90,0.00,,,-99.99,148.899994,,2013-09-02 22:13:00,
2013-09-02 18:24:00,79.0,76.0,-100.00,North,351,2.0,-999.0,89,0.00,,,-99.99,125.500000,,2013-09-02 22:24:00,
2013-09-02 18:44:00,80.0,76.0,-100.00,NNE,16,3.0,-999.0,88,0.00,,,-99.99,95.400002,,2013-09-02 22:44:00,
2013-09-02 18:54:00,79.0,76.0,-100.00,NNE,21,3.0,-999.0,89,0.00,,,-99.99,69.099998,,2013-09-02 22:54:00,
2013-09-02 19:12:00,79.0,76.0,-100.00,NNE,20,2.0,-999.0,90,0.00,,,-99.99,50.799999,,2013-09-02 23:12:00,
2013-09-02 19:22:00,79.0,77.0,-100.00,NNE,21,2.0,-999.0,91,0.00,,,-99.99,40.000000,,2013-09-02 23:22:00,
2013-09-02 19:42:00,79.0,77.0,-100.00,North,2,1.0,-999.0,91,0.00,,,-99.99,27.600000,,2013-09-02 23:42:00,
2013-09-02 19:53:00,79.0,76.0,-100.00,North,5,1.0,-999.0,91,0.00,,,-99.99,12.600000,,2013-09-02 23:53:00,
2013-09-02 20:12:00,79.0,76.0,-100.00,NNE,12,2.0,-999.0,91,0.00,,,-99.99,2.700000,,2013-09-03 00:12:00,
2013-09-02 20:22:00,78.0,76.0,-100.00,NNE,30,1.0,-999.0,91,0.00,,,-99.99,0.100000,,2013-09-03 00:22:00,
2013-09-02 20:42:00,78.0,76.0,-100.00,South,177,1.0,-999.0,93,0.00,,,-99.99,0.000000,,2013-09-03 00:42:00,
2013-09-02 20:52:00,77.0,75.0,-100.00,SSW,209,1.0,-999.0,94,0.00,,,-99.99,0.000000,,2013-09-03 00:52:00,
2013-09-02 21:11:00,77.0,76.0,-100.00,SSW,211,2.0,-999.0,95,0.00,,,-99.99,0.000000,,2013-09-03 01:11:00,
2013-09-02 21:22:00,77.0,76.0,-100.00,SSE,158,1.0,-999.0,95,0.00,,,-99.99,0.000000,,2013-09-03 01:22:00,
2013-09-02 21:42:00,76.0,75.0,-100.00,SSE,151,3.0,-999.0,94,0.00,,,-99.99,0.000000,,2013-09-03 01:42:00,
2013-09-02 21:52:00,77.0,75.0,-100.00,SSE,147,3.0,-999.0,93,0.00,,,-99.99,0.000000,,2013-09-03 01:52:00,
2013-09-02 22:12:00,78.0,76.0,-100.00,SSE,165,2.0,-999.0,93,0.00,,,-99.99,0.000000,,2013-09-03 02:12:00,
2013-09-02 22:22:00,77.0,75.0,-100.00,SSE,163,2.0,-999.0,94,0.00,,,-99.99,0.000000,,2013-09-03 02:22:00,
2013-09-02 22:42:00,77.0,75.0,-100.00,WNW,302,1.0,-999.0,94,0.00,,,-99.99,0.000000,,2013-09-03 02:42:00,
2013-09-02 22:52:00,77.0,76.0,-100.00,West,264,1.0,-999.0,95,0.00,,,-99.99,0.000000,,2013-09-03 02:52:00,
2013-09-02 23:11:00,76.0,75.0,-100.00,SSE,161,0.0,-999.0,96,0.00,,,-99.99,0.000000,,2013-09-03 03:11:00,
2013-09-02 23:23:00,76.0,75.0,-100.00,North,357,1.0,-999.0,96,0.00,,,-99.99,0.000000,,2013-09-03 03:23:00,
2013-09-02 23:45:00,75.0,74.0,-100.00,NW,312,1.0,-999.0,96,0.00,,,-99.99,0.000000,,2013-09-03 03:45:00,
2013-09-02 23:55:00,76.0,75.0,-100.00,WNW,297,1.0,-999.0,97,0.00,,,-99.99,0.000000,,2013-09-03 03:55:00,